createdAt,value
2022-12-08T00:01:42.084Z,100906.38
2022-12-08T00:04:11.189Z,100898.41
2022-12-08T00:06:59.560Z,100885.16
2022-12-08T00:09:36.409Z,100895.78
2022-12-08T00:12:08.464Z,100883.34
2022-12-08T00:14:40.292Z,100883.34
2022-12-08T00:17:09.762Z,100880.69
2022-12-08T00:19:39.118Z,100871.81
2022-12-08T00:22:07.547Z,100871.88
2022-12-08T00:24:38.572Z,100865.69
2022-12-08T00:27:06.773Z,100856.00
2022-12-08T00:29:34.737Z,100852.47
2022-12-08T00:32:04.108Z,100857.75
2022-12-08T00:34:32.415Z,100854.22
2022-12-08T00:37:00.327Z,100856.06
2022-12-08T00:39:28.155Z,100856.94
2022-12-08T00:42:14.180Z,100858.78
2022-12-08T00:44:44.202Z,100856.09
2022-12-08T00:47:15.328Z,100850.81
2022-12-08T00:49:45.917Z,100851.72
2022-12-08T00:52:13.772Z,100845.53
2022-12-08T00:54:41.718Z,100847.31
2022-12-08T00:57:11.572Z,100839.41
2022-12-08T00:59:39.373Z,100833.13
2022-12-08T01:02:07.152Z,100833.13
2022-12-08T01:04:36.330Z,100832.25
2022-12-08T01:07:04.101Z,100827.81
2022-12-08T01:09:32.648Z,100816.34
2022-12-08T01:12:00.940Z,100826.03
2022-12-08T01:14:28.793Z,100825.13
2022-12-08T01:16:56.642Z,100823.31
2022-12-08T01:19:24.442Z,100823.31
2022-12-08T01:21:53.581Z,100822.44
2022-12-08T01:24:22.559Z,100818.88
2022-12-08T01:26:51.551Z,100818.88
2022-12-08T01:29:22.342Z,100822.38
2022-12-08T01:31:50.102Z,100821.53
2022-12-08T01:34:18.080Z,100823.22
2022-12-08T01:36:48.295Z,100821.47
2022-12-08T01:39:20.160Z,100822.31
2022-12-08T01:41:48.908Z,100828.50
2022-12-08T01:44:51.112Z,100822.38
2022-12-08T01:47:19.000Z,100825.03
2022-12-08T01:49:47.583Z,100817.94
2022-12-08T01:52:19.343Z,100816.22
2022-12-08T01:54:52.492Z,100817.97
2022-12-08T01:57:25.192Z,100816.13
2022-12-08T01:59:57.667Z,100816.19
2022-12-08T02:02:27.594Z,100810.97
2022-12-08T02:04:55.545Z,100806.53
2022-12-08T02:07:26.518Z,100801.25
2022-12-08T02:09:58.102Z,100801.16
2022-12-08T02:12:26.145Z,100795.88
2022-12-08T02:14:54.014Z,100791.50
2022-12-08T02:17:37.454Z,100791.56
2022-12-08T02:20:35.506Z,100787.13
2022-12-08T02:23:13.475Z,100791.59
2022-12-08T02:26:02.325Z,100782.75
2022-12-08T02:28:57.061Z,100773.09
2022-12-08T02:31:38.870Z,100764.28
2022-12-08T02:34:20.092Z,100767.78
2022-12-08T02:36:55.855Z,100765.09
2022-12-08T02:39:34.350Z,100757.97
2022-12-08T02:42:11.110Z,100765.91
2022-12-08T02:44:43.165Z,100753.59
2022-12-08T02:47:15.229Z,100755.34
2022-12-08T02:49:44.549Z,100755.38
2022-12-08T02:52:40.631Z,100757.16
2022-12-08T02:55:13.183Z,100743.81
2022-12-08T02:57:46.807Z,100742.94
2022-12-08T03:00:18.234Z,100734.16
2022-12-08T03:02:55.906Z,100740.34
2022-12-08T03:05:40.391Z,100740.34
2022-12-08T03:08:15.987Z,100740.34
2022-12-08T03:10:52.453Z,100737.78
2022-12-08T03:13:26.698Z,100731.59
2022-12-08T03:15:57.005Z,100722.78
2022-12-08T03:18:30.056Z,100720.16
2022-12-08T03:21:01.228Z,100717.47
2022-12-08T03:23:29.486Z,100714.81
2022-12-08T03:26:03.512Z,100710.38
2022-12-08T03:28:31.622Z,100710.41
2022-12-08T03:31:04.185Z,100706.91
2022-12-08T03:33:34.467Z,100700.72
2022-12-08T03:36:08.313Z,100698.09
2022-12-08T03:38:42.455Z,100689.28
2022-12-08T03:41:24.836Z,100692.78
2022-12-08T03:44:05.492Z,100696.28
2022-12-08T03:46:46.699Z,100701.56
2022-12-08T03:49:21.067Z,100693.59
2022-12-08T03:51:58.057Z,100674.13
2022-12-08T03:54:26.200Z,100680.38
2022-12-08T03:56:54.176Z,100676.78
2022-12-08T03:59:22.195Z,100672.41
2022-12-08T04:01:50.177Z,100676.81
2022-12-08T04:04:18.937Z,100667.97
2022-12-08T04:06:47.339Z,100657.38
2022-12-08T04:09:16.548Z,100657.38
2022-12-08T04:11:44.824Z,100652.06
2022-12-08T04:14:12.698Z,100653.81
2022-12-08T04:16:40.480Z,100650.28
2022-12-08T04:19:08.476Z,100643.19
2022-12-08T04:21:36.289Z,100641.41
2022-12-08T04:24:04.179Z,100638.81
2022-12-08T04:26:33.451Z,100643.25
2022-12-08T04:29:01.595Z,100640.56
2022-12-08T04:31:29.506Z,100640.59
2022-12-08T04:33:57.624Z,100642.38
2022-12-08T04:36:25.485Z,100645.91
2022-12-08T04:38:53.352Z,100644.13
2022-12-08T04:41:21.122Z,100641.47
2022-12-08T04:43:50.379Z,100637.03
2022-12-08T04:46:18.373Z,100630.81
2022-12-08T04:48:48.766Z,100631.69
2022-12-08T04:51:21.350Z,100629.06
2022-12-08T04:53:49.472Z,100635.28
2022-12-08T04:56:19.616Z,100629.13
2022-12-08T04:58:47.593Z,100633.59
2022-12-08T05:01:16.953Z,100633.56
2022-12-08T05:03:44.875Z,100632.69
2022-12-08T05:06:14.537Z,100631.81
2022-12-08T05:08:42.553Z,100638.00
2022-12-08T05:11:12.467Z,100630.06
2022-12-08T05:13:40.558Z,100613.25
2022-12-08T05:16:10.479Z,100630.84
2022-12-08T05:18:40.658Z,100626.34
2022-12-08T05:21:09.368Z,100624.66
2022-12-08T05:23:37.256Z,100623.78
2022-12-08T05:26:05.096Z,100617.59
2022-12-08T05:28:41.318Z,100622.91
2022-12-08T05:31:10.338Z,100617.63
2022-12-08T05:33:39.856Z,100620.28
2022-12-08T05:36:08.247Z,100625.59
2022-12-08T05:38:36.088Z,100621.09
2022-12-08T05:41:04.149Z,100623.72
2022-12-08T05:43:32.014Z,100625.50
2022-12-08T05:45:59.884Z,100621.00
2022-12-08T05:48:27.884Z,100617.53
2022-12-08T05:50:57.358Z,100614.06
2022-12-08T05:53:25.230Z,100607.84
2022-12-08T05:55:53.616Z,100607.84
2022-12-08T05:58:23.237Z,100608.75
2022-12-08T06:00:52.493Z,100595.53
2022-12-08T06:03:20.880Z,100597.34
2022-12-08T06:05:49.315Z,100606.16
2022-12-08T06:08:18.729Z,100593.78
2022-12-08T06:10:47.437Z,100595.56
2022-12-08T06:13:17.368Z,100589.41
2022-12-08T06:15:45.120Z,100598.25
2022-12-08T06:18:13.185Z,100595.59
2022-12-08T06:20:41.162Z,100595.56
2022-12-08T06:23:09.474Z,100600.03
2022-12-08T06:25:38.843Z,100594.75
2022-12-08T06:28:07.389Z,100589.50
2022-12-08T06:30:35.586Z,100605.38
2022-12-08T06:33:03.568Z,100605.38
2022-12-08T06:35:31.579Z,100595.56
2022-12-08T06:37:59.611Z,100601.75
2022-12-08T06:40:27.554Z,100591.13
2022-12-08T06:42:56.835Z,100591.97
2022-12-08T06:45:26.463Z,100600.84
2022-12-08T06:47:54.423Z,100590.22
2022-12-08T06:50:22.678Z,100590.22
2022-12-08T06:53:02.703Z,100592.88
2022-12-08T06:55:57.988Z,100590.25
2022-12-08T06:58:22.250Z,100593.69
2022-12-08T07:00:50.224Z,100595.44
2022-12-08T07:03:18.186Z,100593.69
2022-12-08T07:05:46.192Z,100597.22
2022-12-08T07:08:14.264Z,100584.91
2022-12-08T07:10:42.176Z,100591.13
2022-12-08T07:13:09.960Z,100602.56
2022-12-08T07:15:39.286Z,100602.53
2022-12-08T07:18:07.215Z,100607.88
2022-12-08T07:20:35.095Z,100599.97
2022-12-08T07:23:02.846Z,100598.19
2022-12-08T07:25:30.701Z,100599.84
2022-12-08T07:27:58.556Z,100602.47
2022-12-08T07:30:26.399Z,100598.03
2022-12-08T07:32:55.623Z,100608.63
2022-12-08T07:35:23.433Z,100608.63
2022-12-08T07:37:51.350Z,100608.63
2022-12-08T07:40:19.535Z,100605.00
2022-12-08T07:42:47.512Z,100608.59
2022-12-08T07:45:15.410Z,100611.28
2022-12-08T07:47:43.284Z,100598.06
2022-12-08T07:50:13.133Z,100599.84
2022-12-08T07:52:41.047Z,100604.28
2022-12-08T07:55:09.646Z,100604.28
2022-12-08T07:57:37.542Z,100613.09
2022-12-08T08:00:07.438Z,100608.63
2022-12-08T08:02:35.763Z,100600.66
2022-12-08T08:05:04.188Z,100593.59
2022-12-08T08:07:33.674Z,100596.25
2022-12-08T08:10:01.713Z,100599.78
2022-12-08T08:12:31.722Z,100591.84
2022-12-08T08:15:02.995Z,100599.78
2022-12-08T08:17:31.279Z,100598.84
2022-12-08T08:19:59.154Z,100604.16
2022-12-08T08:22:27.953Z,100593.56
2022-12-08T08:24:57.086Z,100604.16
2022-12-08T08:27:25.123Z,100598.00
2022-12-08T08:29:52.981Z,100598.88
2022-12-08T08:32:20.852Z,100607.78
2022-12-08T08:34:48.966Z,100607.78
2022-12-08T08:37:16.966Z,100613.06
2022-12-08T08:39:44.954Z,100612.22
2022-12-08T08:42:14.338Z,100606.00
2022-12-08T08:44:42.339Z,100605.13
2022-12-08T08:47:10.574Z,100601.63
2022-12-08T08:49:38.735Z,100606.03
2022-12-08T08:52:07.467Z,100610.44
2022-12-08T08:54:37.200Z,100606.00
2022-12-08T08:57:05.480Z,100610.38
2022-12-08T08:59:34.800Z,100610.31
2022-12-08T09:02:02.898Z,100609.44
2022-12-08T09:04:30.990Z,100608.56
2022-12-08T09:06:59.587Z,100612.06
2022-12-08T09:09:27.623Z,100612.94
2022-12-08T09:11:56.211Z,100614.78
2022-12-08T09:14:24.679Z,100621.88
2022-12-08T09:16:54.004Z,100620.09
2022-12-08T09:19:22.271Z,100615.72
2022-12-08T09:21:50.388Z,100621.03
2022-12-08T09:24:18.448Z,100623.66
2022-12-08T09:26:47.215Z,100617.44
2022-12-08T09:29:15.210Z,100618.38
2022-12-08T09:31:43.408Z,100608.69
2022-12-08T09:34:13.457Z,100617.59
2022-12-08T09:36:41.998Z,100615.91
2022-12-08T09:39:10.308Z,100622.06
2022-12-08T09:41:48.409Z,100624.72
2022-12-08T09:44:38.574Z,100614.97
2022-12-08T09:47:15.017Z,100615.00
2022-12-08T09:49:49.571Z,100613.28
2022-12-08T09:52:26.653Z,100606.19
2022-12-08T09:55:00.150Z,100613.25
2022-12-08T09:57:28.152Z,100616.78
2022-12-08T10:00:01.135Z,100607.03
2022-12-08T10:02:31.527Z,100614.13
2022-12-08T10:05:01.340Z,100613.28
2022-12-08T10:07:40.251Z,100606.16
2022-12-08T10:10:21.121Z,100607.84
2022-12-08T10:12:55.063Z,100613.94
2022-12-08T10:15:43.184Z,100608.63
2022-12-08T10:18:16.266Z,100606.84
2022-12-08T10:20:50.817Z,100613.06
2022-12-08T10:23:29.667Z,100605.97
2022-12-08T10:26:10.700Z,100608.66
2022-12-08T10:28:44.440Z,100605.09
2022-12-08T10:31:17.941Z,100593.59
2022-12-08T10:33:47.592Z,100593.69
2022-12-08T10:36:17.096Z,100588.41
2022-12-08T10:38:45.095Z,100591.97
2022-12-08T10:41:19.521Z,100594.59
2022-12-08T10:43:50.609Z,100586.66
2022-12-08T10:46:20.982Z,100583.19
2022-12-08T10:48:51.412Z,100582.31
2022-12-08T10:51:31.104Z,100583.28
2022-12-08T10:53:59.419Z,100584.16
2022-12-08T10:56:29.530Z,100576.16
2022-12-08T10:59:14.818Z,100575.25
2022-12-08T11:01:46.512Z,100578.84
2022-12-08T11:04:18.372Z,100577.97
2022-12-08T11:06:48.965Z,100579.72
2022-12-08T11:09:36.079Z,100580.63
2022-12-08T11:12:09.215Z,100573.50
2022-12-08T11:14:49.330Z,100567.34
2022-12-08T11:17:19.220Z,100568.22
2022-12-08T11:19:57.987Z,100567.38
2022-12-08T11:22:31.012Z,100567.38
2022-12-08T11:25:01.689Z,100560.25
2022-12-08T11:27:29.698Z,100559.44
2022-12-08T11:29:58.079Z,100555.91
2022-12-08T11:32:25.875Z,100548.88
2022-12-08T11:35:00.233Z,100555.88
2022-12-08T11:37:35.209Z,100548.81
2022-12-08T11:40:08.327Z,100552.34
2022-12-08T11:42:44.454Z,100551.47
2022-12-08T11:45:26.657Z,100546.19
2022-12-08T11:48:03.173Z,100552.38
2022-12-08T11:50:36.863Z,100555.00
2022-12-08T11:53:10.033Z,100544.41
2022-12-08T11:55:45.191Z,100545.34
2022-12-08T11:58:20.607Z,100538.25
2022-12-08T12:00:48.781Z,100537.41
2022-12-08T12:03:30.015Z,100542.69
2022-12-08T12:09:14.231Z,100540.84
2022-12-08T12:12:11.889Z,100539.06
2022-12-08T12:15:17.379Z,100538.25
2022-12-08T12:17:48.987Z,100538.28
2022-12-08T12:20:22.259Z,100544.44
2022-12-08T12:22:57.772Z,100541.84
2022-12-08T12:25:28.302Z,100543.59
2022-12-08T12:28:02.102Z,100539.22
2022-12-08T12:30:36.206Z,100540.13
2022-12-08T12:33:11.977Z,100538.38
2022-12-08T12:35:44.007Z,100536.59
2022-12-08T12:38:41.069Z,100537.44
2022-12-08T12:41:11.778Z,100547.16
2022-12-08T12:43:40.234Z,100544.53
2022-12-08T12:46:41.285Z,100541.00
2022-12-08T12:49:48.686Z,100541.00
2022-12-08T12:52:45.542Z,100534.78
2022-12-08T12:55:28.944Z,100527.69
2022-12-08T12:58:01.467Z,100537.41
2022-12-08T13:00:29.249Z,100532.06
2022-12-08T13:02:59.707Z,100532.97
2022-12-08T13:05:30.055Z,100532.09
2022-12-08T13:08:01.202Z,100530.28
2022-12-08T13:10:32.357Z,100532.03
2022-12-08T13:13:18.935Z,100531.16
2022-12-08T13:16:18.856Z,100533.78
2022-12-08T13:18:52.463Z,100537.31
2022-12-08T13:21:23.997Z,100529.41
2022-12-08T13:24:17.690Z,100529.44
2022-12-08T13:26:46.659Z,100519.75
2022-12-08T13:29:22.741Z,100524.16
2022-12-08T13:31:53.355Z,100517.97
2022-12-08T13:34:27.958Z,100521.53
2022-12-08T13:37:05.288Z,100511.84
2022-12-08T13:39:44.267Z,100514.50
2022-12-08T13:42:22.158Z,100516.25
2022-12-08T13:48:23.532Z,100511.84
2022-12-08T13:57:03.903Z,100509.97
2022-12-08T13:59:39.735Z,100509.09
2022-12-08T14:02:27.991Z,100505.56
2022-12-08T14:07:50.736Z,100503.75
2022-12-08T14:10:22.062Z,100500.19
2022-12-08T14:12:55.933Z,100496.69
2022-12-08T14:15:26.357Z,100501.97
2022-12-08T14:17:58.752Z,100493.16
2022-12-08T14:20:30.007Z,100496.69
2022-12-08T14:22:59.020Z,100495.81
2022-12-08T14:25:29.158Z,100499.34
2022-12-08T14:28:01.644Z,100498.47
2022-12-08T14:30:31.852Z,100503.78
2022-12-08T14:33:03.112Z,100501.09
2022-12-08T14:35:32.062Z,100501.09
2022-12-08T14:38:02.457Z,100499.31
2022-12-08T14:40:33.734Z,100503.69
2022-12-08T14:43:15.920Z,100498.38
2022-12-08T14:45:53.258Z,100496.66
2022-12-08T14:48:27.353Z,100498.44
2022-12-08T14:51:05.281Z,100491.38
2022-12-08T14:54:14.577Z,100494.03
2022-12-08T14:56:51.239Z,100492.25
2022-12-08T14:59:22.884Z,100506.41
2022-12-08T15:01:54.006Z,100497.53
2022-12-08T15:04:33.631Z,100498.44
2022-12-08T15:07:08.093Z,100494.00
2022-12-08T15:09:38.762Z,100489.56
2022-12-08T15:12:27.205Z,100500.19
2022-12-08T15:14:58.153Z,100498.38
2022-12-08T15:17:34.316Z,100491.34
2022-12-08T15:20:05.794Z,100500.16
2022-12-08T15:22:35.322Z,100498.38
2022-12-08T15:25:13.744Z,100501.09
2022-12-08T15:27:50.043Z,100504.59
2022-12-08T15:30:19.365Z,100497.50
2022-12-08T15:32:48.380Z,100494.88
2022-12-08T15:35:17.890Z,100497.56
2022-12-08T15:37:46.545Z,100491.38
2022-12-08T15:40:18.524Z,100489.59
2022-12-08T15:42:46.923Z,100486.06
2022-12-08T15:45:15.454Z,100494.81
2022-12-08T15:47:44.980Z,100497.47
2022-12-08T15:50:19.207Z,100496.56
2022-12-08T15:52:50.234Z,100495.69
2022-12-08T15:55:19.861Z,100502.78
2022-12-08T15:58:51.250Z,100501.00
2022-12-08T16:00:55.494Z,100503.66
2022-12-08T16:09:16.787Z,100498.44
2022-12-08T16:12:07.866Z,100503.75
2022-12-08T16:17:25.310Z,100516.06
2022-12-08T16:19:53.481Z,100511.63
2022-12-08T16:25:22.330Z,100502.78
2022-12-08T16:28:08.157Z,100498.31
2022-12-08T16:30:41.372Z,100503.63
2022-12-08T16:33:10.697Z,100499.19
2022-12-08T16:35:38.674Z,100502.81
2022-12-08T16:38:08.034Z,100500.19
2022-12-08T16:40:57.821Z,100505.53
2022-12-08T16:43:24.737Z,100503.78
2022-12-08T16:45:52.873Z,100502.00
2022-12-08T16:48:22.540Z,100497.53
2022-12-08T16:50:50.455Z,100501.94
2022-12-08T16:53:19.865Z,100508.97
2022-12-08T16:55:48.887Z,100510.75
2022-12-08T16:58:18.537Z,100503.66
2022-12-08T17:00:46.649Z,100505.44
2022-12-08T17:03:16.405Z,100510.75
2022-12-08T17:05:45.061Z,100514.25
2022-12-08T17:08:14.134Z,100509.81
2022-12-08T17:11:05.997Z,100508.94
2022-12-08T17:13:34.630Z,100513.34
2022-12-08T17:16:03.163Z,100509.84
2022-12-08T17:18:33.534Z,100509.88
2022-12-08T17:21:01.606Z,100517.00
2022-12-08T17:23:29.873Z,100523.16
2022-12-08T17:26:02.801Z,100509.88
2022-12-08T17:28:58.313Z,100512.53
2022-12-08T17:31:24.696Z,100508.97
2022-12-08T17:33:55.873Z,100515.19
2022-12-08T17:36:23.921Z,100517.00
2022-12-08T17:38:52.176Z,100512.56
2022-12-08T17:41:21.727Z,100508.16
2022-12-08T17:43:49.675Z,100509.94
2022-12-08T17:46:19.092Z,100506.41
2022-12-08T17:48:47.191Z,100506.41
2022-12-08T17:51:16.222Z,100509.94
2022-12-08T17:53:44.481Z,100505.53
2022-12-08T17:56:16.732Z,100510.88
2022-12-08T17:58:49.851Z,100499.34
2022-12-08T18:01:22.865Z,100512.63
2022-12-08T18:03:50.946Z,100505.56
2022-12-08T18:06:18.992Z,100505.56
2022-12-08T18:08:47.310Z,100510.88
2022-12-08T18:11:19.253Z,100513.53
2022-12-08T18:13:50.819Z,100510.81
2022-12-08T18:16:20.325Z,100517.03
2022-12-08T18:18:51.926Z,100507.28
2022-12-08T18:21:23.526Z,100508.16
2022-12-08T18:23:53.630Z,100502.91
2022-12-08T18:26:23.235Z,100506.44
2022-12-08T18:28:52.799Z,100494.91
2022-12-08T18:31:22.937Z,100504.66
2022-12-08T18:33:52.123Z,100504.63
2022-12-08T18:36:30.184Z,100499.28
2022-12-08T18:39:03.372Z,100503.66
2022-12-08T18:41:34.303Z,100496.53
2022-12-08T18:44:04.030Z,100497.38
2022-12-08T18:46:33.270Z,100507.94
2022-12-08T18:49:01.413Z,100509.72
2022-12-08T18:51:29.776Z,100516.84
2022-12-08T18:53:59.883Z,100514.19
2022-12-08T18:56:29.710Z,100518.59
2022-12-08T18:59:03.651Z,100512.44
2022-12-08T19:01:34.740Z,100516.00
2022-12-08T19:06:59.468Z,100510.66
2022-12-08T19:09:29.044Z,100511.50
2022-12-08T19:11:57.733Z,100518.53
2022-12-08T19:14:28.604Z,100520.31
2022-12-08T19:16:58.989Z,100520.22
2022-12-08T19:19:27.523Z,100523.72
2022-12-08T19:21:55.857Z,100525.50
2022-12-08T19:24:24.335Z,100520.22
2022-12-08T19:26:52.580Z,100517.56
2022-12-08T19:29:24.175Z,100510.44
2022-12-08T19:32:03.396Z,100512.22
2022-12-08T19:34:35.298Z,100508.66
2022-12-08T19:37:04.742Z,100513.06
2022-12-08T19:39:52.029Z,100514.78
2022-12-08T19:42:38.727Z,100512.09
2022-12-08T19:45:12.121Z,100503.25
2022-12-08T19:47:45.138Z,100500.53
2022-12-08T19:50:33.413Z,100513.75
2022-12-08T19:53:01.942Z,100509.34
2022-12-08T19:55:32.105Z,100510.22
2022-12-08T19:58:01.977Z,100515.53
2022-12-08T20:00:31.493Z,100518.19
2022-12-08T20:03:01.770Z,100521.72
2022-12-08T20:05:32.000Z,100524.34
2022-12-08T20:08:00.568Z,100527.91
2022-12-08T20:10:31.051Z,100534.06
2022-12-08T20:13:12.929Z,100529.63
2022-12-08T20:15:41.295Z,100531.44
2022-12-08T20:18:09.476Z,100530.56
2022-12-08T20:20:39.130Z,100538.53
2022-12-08T20:23:07.294Z,100536.75
2022-12-08T20:25:38.604Z,100533.22
2022-12-08T20:28:07.137Z,100532.38
2022-12-08T20:30:35.515Z,100528.84
2022-12-08T20:33:03.895Z,100529.75
2022-12-08T20:35:33.512Z,100534.19
2022-12-08T20:38:03.100Z,100534.25
2022-12-08T20:40:31.140Z,100525.44
2022-12-08T20:42:59.225Z,100532.50
2022-12-08T20:45:27.226Z,100529.00
2022-12-08T20:47:55.379Z,100533.44
2022-12-08T20:50:23.405Z,100520.22
2022-12-08T20:52:51.741Z,100534.38
2022-12-08T20:55:23.092Z,100533.50
2022-12-08T20:57:53.133Z,100537.91
2022-12-08T21:00:23.304Z,100533.47
2022-12-08T21:02:56.497Z,100536.13
2022-12-08T21:05:33.540Z,100545.84
2022-12-08T21:08:01.925Z,100544.97
2022-12-08T21:10:31.727Z,100534.38
2022-12-08T21:13:08.713Z,100540.53
2022-12-08T21:15:38.996Z,100533.47
2022-12-08T21:18:07.480Z,100537.03
2022-12-08T21:20:36.109Z,100538.78
2022-12-08T21:23:05.404Z,100537.91
2022-12-08T21:25:34.771Z,100537.91
2022-12-08T21:31:56.481Z,100537.03
2022-12-08T21:37:37.717Z,100537.03
2022-12-08T21:40:08.368Z,100530.84
2022-12-08T21:42:46.813Z,100534.41
2022-12-08T21:45:16.825Z,100522.88
2022-12-08T21:47:45.421Z,100526.34
2022-12-08T21:50:14.433Z,100532.50
2022-12-08T21:52:44.700Z,100525.44
2022-12-08T21:55:14.361Z,100529.81
2022-12-08T21:57:44.499Z,100527.16
2022-12-08T22:00:16.185Z,100534.28
2022-12-08T22:02:44.956Z,100525.44
2022-12-08T22:05:13.052Z,100521.03
2022-12-08T22:07:43.062Z,100520.16
2022-12-08T22:10:12.150Z,100517.50
2022-12-08T22:12:40.694Z,100524.53
2022-12-08T22:15:12.066Z,100523.66
2022-12-08T22:17:42.769Z,100521.00
2022-12-08T22:20:14.281Z,100524.56
2022-12-08T22:22:43.089Z,100524.59
2022-12-08T22:25:14.646Z,100531.69
2022-12-08T22:27:42.761Z,100523.69
2022-12-08T22:30:13.290Z,100521.00
2022-12-08T22:32:42.014Z,100527.16
2022-12-08T22:35:11.282Z,100522.72
2022-12-08T22:37:39.311Z,100520.06
2022-12-08T22:40:08.888Z,100528.00
2022-12-08T22:42:37.148Z,100520.97
2022-12-08T22:45:05.684Z,100523.66
2022-12-08T22:47:35.812Z,100525.47
2022-12-08T22:50:04.738Z,100522.84
2022-12-08T22:52:33.590Z,100511.38
2022-12-08T22:55:03.415Z,100513.13
2022-12-08T22:57:31.899Z,100518.38
2022-12-08T22:59:59.771Z,100508.66
2022-12-08T23:02:27.837Z,100513.06
2022-12-08T23:05:00.505Z,100513.94
2022-12-08T23:07:28.998Z,100510.38
2022-12-08T23:09:57.457Z,100506.81
2022-12-08T23:12:25.553Z,100506.78
2022-12-08T23:14:55.035Z,100504.97
2022-12-08T23:17:23.337Z,100509.38
2022-12-08T23:19:51.878Z,100509.41
2022-12-08T23:22:21.537Z,100512.88
2022-12-08T23:24:49.609Z,100507.53
2022-12-08T23:27:17.823Z,100511.06
2022-12-08T23:29:46.277Z,100509.28
2022-12-08T23:32:16.068Z,100510.22
2022-12-08T23:34:44.563Z,100512.91
2022-12-08T23:37:15.006Z,100511.13
2022-12-08T23:39:44.679Z,100509.41
2022-12-08T23:42:12.973Z,100513.81
2022-12-08T23:44:41.066Z,100514.69
2022-12-08T23:47:09.201Z,100506.72
2022-12-08T23:49:37.114Z,100512.03
2022-12-08T23:52:05.917Z,100509.38
2022-12-08T23:54:34.231Z,100510.22
2022-12-08T23:57:04.002Z,100504.03
2022-12-08T23:59:32.198Z,100506.63
